sensor_id;sensor_type;location;lat;lon;timestamp;P1;durP1;ratioP1;P2;durP2;ratioP2
19448;SDS011;9863;49.404;8.246;2022-09-23T00:01:20;5.47;;;3.08;;
19448;SDS011;9863;49.404;8.246;2022-09-23T00:03:49;4.68;;;2.75;;
19448;SDS011;9863;49.404;8.246;2022-09-23T00:06:18;5.55;;;3.05;;
19448;SDS011;9863;49.404;8.246;2022-09-23T00:08:48;6.88;;;3.55;;
19448;SDS011;9863;49.404;8.246;2022-09-23T00:11:19;6.82;;;3.63;;
19448;SDS011;9863;49.404;8.246;2022-09-23T00:13:53;7.00;;;3.72;;
19448;SDS011;9863;49.404;8.246;2022-09-23T00:16:28;6.97;;;3.67;;
19448;SDS011;9863;49.404;8.246;2022-09-23T00:19:00;5.93;;;3.25;;
19448;SDS011;9863;49.404;8.246;2022-09-23T00:21:30;6.53;;;3.83;;
19448;SDS011;9863;49.404;8.246;2022-09-23T00:23:57;7.13;;;3.72;;
19448;SDS011;9863;49.404;8.246;2022-09-23T00:26:25;5.22;;;2.75;;
19448;SDS011;9863;49.404;8.246;2022-09-23T00:28:53;7.15;;;3.53;;
19448;SDS011;9863;49.404;8.246;2022-09-23T00:31:23;7.13;;;3.60;;
19448;SDS011;9863;49.404;8.246;2022-09-23T00:33:56;6.70;;;3.53;;
19448;SDS011;9863;49.404;8.246;2022-09-23T00:36:27;6.78;;;3.72;;
19448;SDS011;9863;49.404;8.246;2022-09-23T00:38:56;4.88;;;2.92;;
19448;SDS011;9863;49.404;8.246;2022-09-23T00:41:35;2.95;;;1.60;;
19448;SDS011;9863;49.404;8.246;2022-09-23T00:47:22;3.30;;;1.75;;
19448;SDS011;9863;49.404;8.246;2022-09-23T00:50:08;4.90;;;2.58;;
19448;SDS011;9863;49.404;8.246;2022-09-23T00:52:41;4.32;;;2.40;;
19448;SDS011;9863;49.404;8.246;2022-09-23T00:55:12;2.25;;;1.48;;
19448;SDS011;9863;49.404;8.246;2022-09-23T00:57:45;3.17;;;1.90;;
19448;SDS011;9863;49.404;8.246;2022-09-23T01:00:14;3.45;;;2.00;;
19448;SDS011;9863;49.404;8.246;2022-09-23T01:02:42;3.80;;;2.30;;
19448;SDS011;9863;49.404;8.246;2022-09-23T01:05:10;4.38;;;2.47;;
19448;SDS011;9863;49.404;8.246;2022-09-23T01:07:38;4.82;;;2.85;;
19448;SDS011;9863;49.404;8.246;2022-09-23T01:10:06;3.05;;;1.85;;
19448;SDS011;9863;49.404;8.246;2022-09-23T01:12:53;3.47;;;2.00;;
19448;SDS011;9863;49.404;8.246;2022-09-23T01:18:39;3.47;;;2.00;;
19448;SDS011;9863;49.404;8.246;2022-09-23T01:35:17;3.53;;;2.10;;
19448;SDS011;9863;49.404;8.246;2022-09-23T01:38:18;2.58;;;1.77;;
19448;SDS011;9863;49.404;8.246;2022-09-23T01:44:07;4.90;;;3.10;;
19448;SDS011;9863;49.404;8.246;2022-09-23T01:46:46;4.55;;;3.00;;
19448;SDS011;9863;49.404;8.246;2022-09-23T01:52:22;3.20;;;2.33;;
19448;SDS011;9863;49.404;8.246;2022-09-23T01:55:06;3.00;;;2.25;;
19448;SDS011;9863;49.404;8.246;2022-09-23T01:57:52;4.35;;;2.97;;
19448;SDS011;9863;49.404;8.246;2022-09-23T02:00:37;5.13;;;3.28;;
19448;SDS011;9863;49.404;8.246;2022-09-23T02:03:11;4.07;;;2.78;;
19448;SDS011;9863;49.404;8.246;2022-09-23T02:05:46;2.80;;;2.38;;
19448;SDS011;9863;49.404;8.246;2022-09-23T02:08:27;3.55;;;2.67;;
19448;SDS011;9863;49.404;8.246;2022-09-23T02:11:14;2.70;;;2.13;;
19448;SDS011;9863;49.404;8.246;2022-09-23T02:16:29;3.17;;;2.80;;
19448;SDS011;9863;49.404;8.246;2022-09-23T02:19:06;2.90;;;2.40;;
19448;SDS011;9863;49.404;8.246;2022-09-23T02:21:40;3.10;;;2.58;;
19448;SDS011;9863;49.404;8.246;2022-09-23T02:24:14;3.20;;;2.63;;
19448;SDS011;9863;49.404;8.246;2022-09-23T02:35:35;2.45;;;2.08;;
19448;SDS011;9863;49.404;8.246;2022-09-23T02:46:38;3.33;;;2.25;;
19448;SDS011;9863;49.404;8.246;2022-09-23T02:49:21;3.33;;;2.60;;
19448;SDS011;9863;49.404;8.246;2022-09-23T02:52:02;3.58;;;2.63;;
19448;SDS011;9863;49.404;8.246;2022-09-23T02:54:31;4.35;;;2.85;;
19448;SDS011;9863;49.404;8.246;2022-09-23T02:57:01;3.70;;;2.58;;
19448;SDS011;9863;49.404;8.246;2022-09-23T02:59:31;3.28;;;2.35;;
19448;SDS011;9863;49.404;8.246;2022-09-23T03:21:37;2.30;;;1.60;;
19448;SDS011;9863;49.404;8.246;2022-09-23T03:24:22;4.00;;;2.88;;
19448;SDS011;9863;49.404;8.246;2022-09-23T03:26:51;3.13;;;2.10;;
19448;SDS011;9863;49.404;8.246;2022-09-23T03:29:21;3.55;;;2.50;;
19448;SDS011;9863;49.404;8.246;2022-09-23T03:32:04;3.63;;;2.45;;
19448;SDS011;9863;49.404;8.246;2022-09-23T03:34:47;4.10;;;2.72;;
19448;SDS011;9863;49.404;8.246;2022-09-23T03:43:09;2.60;;;1.90;;
19448;SDS011;9863;49.404;8.246;2022-09-23T03:45:40;3.92;;;2.63;;
19448;SDS011;9863;49.404;8.246;2022-09-23T03:48:08;2.63;;;1.95;;
19448;SDS011;9863;49.404;8.246;2022-09-23T03:50:36;3.85;;;2.60;;
19448;SDS011;9863;49.404;8.246;2022-09-23T03:53:05;3.55;;;2.35;;
19448;SDS011;9863;49.404;8.246;2022-09-23T03:55:33;4.18;;;2.55;;
19448;SDS011;9863;49.404;8.246;2022-09-23T03:58:01;3.63;;;2.20;;
19448;SDS011;9863;49.404;8.246;2022-09-23T04:00:30;4.10;;;2.60;;
19448;SDS011;9863;49.404;8.246;2022-09-23T04:03:00;3.72;;;2.40;;
19448;SDS011;9863;49.404;8.246;2022-09-23T04:05:28;5.40;;;3.22;;
19448;SDS011;9863;49.404;8.246;2022-09-23T04:07:56;4.60;;;2.83;;
19448;SDS011;9863;49.404;8.246;2022-09-23T04:10:24;4.20;;;2.63;;
19448;SDS011;9863;49.404;8.246;2022-09-23T04:12:52;3.78;;;2.45;;
19448;SDS011;9863;49.404;8.246;2022-09-23T04:15:20;4.22;;;2.58;;
19448;SDS011;9863;49.404;8.246;2022-09-23T04:17:48;4.47;;;2.72;;
19448;SDS011;9863;49.404;8.246;2022-09-23T04:20:16;4.75;;;2.90;;
19448;SDS011;9863;49.404;8.246;2022-09-23T04:22:45;4.95;;;2.75;;
19448;SDS011;9863;49.404;8.246;2022-09-23T04:25:13;3.50;;;2.20;;
19448;SDS011;9863;49.404;8.246;2022-09-23T04:27:41;3.83;;;2.40;;
19448;SDS011;9863;49.404;8.246;2022-09-23T04:30:09;3.83;;;2.40;;
19448;SDS011;9863;49.404;8.246;2022-09-23T04:32:38;3.22;;;2.10;;
19448;SDS011;9863;49.404;8.246;2022-09-23T04:35:07;2.85;;;1.88;;
19448;SDS011;9863;49.404;8.246;2022-09-23T04:37:35;3.78;;;2.22;;
19448;SDS011;9863;49.404;8.246;2022-09-23T04:40:03;2.78;;;1.85;;
19448;SDS011;9863;49.404;8.246;2022-09-23T04:42:31;3.35;;;2.20;;
19448;SDS011;9863;49.404;8.246;2022-09-23T04:44:59;4.03;;;2.63;;
19448;SDS011;9863;49.404;8.246;2022-09-23T04:47:27;3.75;;;2.22;;
19448;SDS011;9863;49.404;8.246;2022-09-23T04:49:58;3.90;;;2.53;;
19448;SDS011;9863;49.404;8.246;2022-09-23T04:52:26;4.30;;;2.63;;
19448;SDS011;9863;49.404;8.246;2022-09-23T04:54:54;4.57;;;2.88;;
19448;SDS011;9863;49.404;8.246;2022-09-23T04:57:22;4.15;;;2.67;;
19448;SDS011;9863;49.404;8.246;2022-09-23T04:59:50;3.10;;;2.03;;
19448;SDS011;9863;49.404;8.246;2022-09-23T05:02:20;4.18;;;2.60;;
19448;SDS011;9863;49.404;8.246;2022-09-23T05:04:51;2.90;;;1.92;;
19448;SDS011;9863;49.404;8.246;2022-09-23T05:07:19;3.03;;;2.05;;
19448;SDS011;9863;49.404;8.246;2022-09-23T05:09:47;3.53;;;2.20;;
19448;SDS011;9863;49.404;8.246;2022-09-23T05:12:15;3.95;;;2.33;;
19448;SDS011;9863;49.404;8.246;2022-09-23T05:14:44;4.00;;;2.60;;
19448;SDS011;9863;49.404;8.246;2022-09-23T05:17:12;3.15;;;2.00;;
19448;SDS011;9863;49.404;8.246;2022-09-23T05:19:41;2.08;;;1.60;;
19448;SDS011;9863;49.404;8.246;2022-09-23T05:22:11;3.08;;;2.03;;
19448;SDS011;9863;49.404;8.246;2022-09-23T05:24:39;4.28;;;2.60;;
19448;SDS011;9863;49.404;8.246;2022-09-23T05:27:07;2.28;;;1.52;;
19448;SDS011;9863;49.404;8.246;2022-09-23T05:29:35;3.13;;;1.98;;
19448;SDS011;9863;49.404;8.246;2022-09-23T05:32:05;2.83;;;2.03;;
19448;SDS011;9863;49.404;8.246;2022-09-23T05:34:34;2.90;;;1.98;;
19448;SDS011;9863;49.404;8.246;2022-09-23T05:37:02;3.13;;;2.08;;
19448;SDS011;9863;49.404;8.246;2022-09-23T05:39:31;17.85;;;5.28;;
19448;SDS011;9863;49.404;8.246;2022-09-23T05:41:59;3.53;;;2.22;;
19448;SDS011;9863;49.404;8.246;2022-09-23T05:44:26;3.20;;;2.03;;
19448;SDS011;9863;49.404;8.246;2022-09-23T05:46:54;3.17;;;1.90;;
19448;SDS011;9863;49.404;8.246;2022-09-23T05:49:22;2.30;;;1.60;;
19448;SDS011;9863;49.404;8.246;2022-09-23T05:52:10;2.58;;;1.80;;
19448;SDS011;9863;49.404;8.246;2022-09-23T05:54:38;2.92;;;2.00;;
19448;SDS011;9863;49.404;8.246;2022-09-23T05:57:06;2.47;;;1.60;;
19448;SDS011;9863;49.404;8.246;2022-09-23T05:59:34;3.47;;;2.17;;
19448;SDS011;9863;49.404;8.246;2022-09-23T06:02:04;2.95;;;1.90;;
19448;SDS011;9863;49.404;8.246;2022-09-23T06:04:32;3.30;;;2.10;;
19448;SDS011;9863;49.404;8.246;2022-09-23T06:07:00;2.60;;;1.85;;
19448;SDS011;9863;49.404;8.246;2022-09-23T06:09:29;2.53;;;1.70;;
19448;SDS011;9863;49.404;8.246;2022-09-23T06:12:03;2.80;;;1.90;;
19448;SDS011;9863;49.404;8.246;2022-09-23T06:14:32;2.58;;;1.85;;
19448;SDS011;9863;49.404;8.246;2022-09-23T06:17:00;3.42;;;2.10;;
19448;SDS011;9863;49.404;8.246;2022-09-23T06:19:28;2.80;;;1.85;;
19448;SDS011;9863;49.404;8.246;2022-09-23T06:21:56;3.97;;;2.35;;
19448;SDS011;9863;49.404;8.246;2022-09-23T06:24:24;2.55;;;1.70;;
19448;SDS011;9863;49.404;8.246;2022-09-23T06:26:57;3.90;;;2.42;;
19448;SDS011;9863;49.404;8.246;2022-09-23T06:29:25;2.83;;;1.88;;
19448;SDS011;9863;49.404;8.246;2022-09-23T06:31:53;2.92;;;1.90;;
19448;SDS011;9863;49.404;8.246;2022-09-23T06:34:21;3.00;;;1.85;;
19448;SDS011;9863;49.404;8.246;2022-09-23T06:36:48;2.83;;;1.92;;
19448;SDS011;9863;49.404;8.246;2022-09-23T06:39:17;3.13;;;2.00;;
19448;SDS011;9863;49.404;8.246;2022-09-23T06:41:45;3.30;;;2.00;;
19448;SDS011;9863;49.404;8.246;2022-09-23T06:44:13;2.55;;;1.63;;
19448;SDS011;9863;49.404;8.246;2022-09-23T06:46:42;3.30;;;2.05;;
19448;SDS011;9863;49.404;8.246;2022-09-23T06:49:10;3.13;;;1.98;;
19448;SDS011;9863;49.404;8.246;2022-09-23T06:51:39;2.55;;;1.70;;
19448;SDS011;9863;49.404;8.246;2022-09-23T06:54:07;4.00;;;2.20;;
19448;SDS011;9863;49.404;8.246;2022-09-23T06:56:35;2.33;;;1.70;;
19448;SDS011;9863;49.404;8.246;2022-09-23T06:59:06;3.13;;;1.90;;
19448;SDS011;9863;49.404;8.246;2022-09-23T07:01:37;3.20;;;2.10;;
19448;SDS011;9863;49.404;8.246;2022-09-23T07:04:05;3.08;;;1.88;;
19448;SDS011;9863;49.404;8.246;2022-09-23T07:06:34;2.75;;;1.90;;
19448;SDS011;9863;49.404;8.246;2022-09-23T07:09:02;2.88;;;1.80;;
19448;SDS011;9863;49.404;8.246;2022-09-23T07:11:32;3.40;;;2.08;;
19448;SDS011;9863;49.404;8.246;2022-09-23T07:14:00;3.80;;;2.20;;
19448;SDS011;9863;49.404;8.246;2022-09-23T07:16:28;2.65;;;1.73;;
19448;SDS011;9863;49.404;8.246;2022-09-23T07:18:55;3.00;;;1.70;;
19448;SDS011;9863;49.404;8.246;2022-09-23T07:21:23;3.65;;;2.10;;
19448;SDS011;9863;49.404;8.246;2022-09-23T07:23:52;5.28;;;2.92;;
19448;SDS011;9863;49.404;8.246;2022-09-23T07:26:21;3.05;;;1.80;;
19448;SDS011;9863;49.404;8.246;2022-09-23T07:28:55;3.25;;;1.90;;
19448;SDS011;9863;49.404;8.246;2022-09-23T07:31:31;3.42;;;2.08;;
19448;SDS011;9863;49.404;8.246;2022-09-23T07:34:06;4.13;;;2.20;;
19448;SDS011;9863;49.404;8.246;2022-09-23T07:36:38;3.22;;;1.95;;
19448;SDS011;9863;49.404;8.246;2022-09-23T07:39:08;2.50;;;1.50;;
19448;SDS011;9863;49.404;8.246;2022-09-23T07:42:12;4.32;;;2.63;;
19448;SDS011;9863;49.404;8.246;2022-09-23T07:44:41;3.78;;;2.15;;
19448;SDS011;9863;49.404;8.246;2022-09-23T07:47:13;3.65;;;2.17;;
19448;SDS011;9863;49.404;8.246;2022-09-23T07:49:43;3.03;;;2.08;;
19448;SDS011;9863;49.404;8.246;2022-09-23T07:52:11;3.67;;;2.20;;
19448;SDS011;9863;49.404;8.246;2022-09-23T07:54:39;4.10;;;2.42;;
19448;SDS011;9863;49.404;8.246;2022-09-23T07:57:07;3.80;;;2.38;;
19448;SDS011;9863;49.404;8.246;2022-09-23T07:59:35;3.78;;;2.42;;
19448;SDS011;9863;49.404;8.246;2022-09-23T08:02:04;2.28;;;1.83;;
19448;SDS011;9863;49.404;8.246;2022-09-23T08:04:32;2.03;;;1.65;;
19448;SDS011;9863;49.404;8.246;2022-09-23T08:07:02;1.80;;;1.50;;
19448;SDS011;9863;49.404;8.246;2022-09-23T08:09:36;2.47;;;1.90;;
19448;SDS011;9863;49.404;8.246;2022-09-23T08:12:08;2.17;;;1.65;;
19448;SDS011;9863;49.404;8.246;2022-09-23T08:14:42;1.92;;;1.60;;
19448;SDS011;9863;49.404;8.246;2022-09-23T08:17:11;3.50;;;2.30;;
19448;SDS011;9863;49.404;8.246;2022-09-23T08:19:39;2.45;;;1.88;;
19448;SDS011;9863;49.404;8.246;2022-09-23T08:22:07;2.10;;;1.70;;
19448;SDS011;9863;49.404;8.246;2022-09-23T08:24:36;2.42;;;1.75;;
19448;SDS011;9863;49.404;8.246;2022-09-23T08:27:04;2.83;;;2.22;;
19448;SDS011;9863;49.404;8.246;2022-09-23T08:29:32;1.55;;;1.42;;
19448;SDS011;9863;49.404;8.246;2022-09-23T08:32:01;1.67;;;1.40;;
19448;SDS011;9863;49.404;8.246;2022-09-23T08:34:29;2.08;;;1.67;;
19448;SDS011;9863;49.404;8.246;2022-09-23T08:36:57;2.03;;;1.63;;
19448;SDS011;9863;49.404;8.246;2022-09-23T08:42:23;1.50;;;1.30;;
19448;SDS011;9863;49.404;8.246;2022-09-23T08:44:59;1.52;;;1.30;;
19448;SDS011;9863;49.404;8.246;2022-09-23T08:47:39;1.48;;;1.20;;
19448;SDS011;9863;49.404;8.246;2022-09-23T08:50:20;0.10;;;0.10;;
19448;SDS011;9863;49.404;8.246;2022-09-23T08:52:51;0.70;;;0.65;;
19448;SDS011;9863;49.404;8.246;2022-09-23T08:55:38;1.55;;;1.25;;
19448;SDS011;9863;49.404;8.246;2022-09-23T09:01:06;7.45;;;6.82;;
19448;SDS011;9863;49.404;8.246;2022-09-23T09:06:28;1.10;;;1.00;;
19448;SDS011;9863;49.404;8.246;2022-09-23T09:09:24;0.70;;;0.70;;
19448;SDS011;9863;49.404;8.246;2022-09-23T09:12:08;0.80;;;0.80;;
19448;SDS011;9863;49.404;8.246;2022-09-23T09:22:42;0.80;;;0.80;;
19448;SDS011;9863;49.404;8.246;2022-09-23T09:32:00;1.00;;;0.90;;
19448;SDS011;9863;49.404;8.246;2022-09-23T09:34:48;0.65;;;0.60;;
19448;SDS011;9863;49.404;8.246;2022-09-23T09:37:43;0.35;;;0.35;;
19448;SDS011;9863;49.404;8.246;2022-09-23T09:40:13;0.43;;;0.43;;
19448;SDS011;9863;49.404;8.246;2022-09-23T09:42:45;0.73;;;0.73;;
19448;SDS011;9863;49.404;8.246;2022-09-23T09:53:27;0.70;;;0.70;;
19448;SDS011;9863;49.404;8.246;2022-09-23T09:56:06;0.68;;;0.68;;
19448;SDS011;9863;49.404;8.246;2022-09-23T09:58:48;1.00;;;0.90;;
19448;SDS011;9863;49.404;8.246;2022-09-23T10:01:28;0.90;;;0.82;;
19448;SDS011;9863;49.404;8.246;2022-09-23T10:04:05;1.70;;;1.25;;
19448;SDS011;9863;49.404;8.246;2022-09-23T10:07:08;0.80;;;0.80;;
19448;SDS011;9863;49.404;8.246;2022-09-23T10:09:47;0.70;;;0.70;;
19448;SDS011;9863;49.404;8.246;2022-09-23T10:12:17;1.38;;;1.08;;
19448;SDS011;9863;49.404;8.246;2022-09-23T10:14:48;0.80;;;0.80;;
19448;SDS011;9863;49.404;8.246;2022-09-23T10:17:29;2.30;;;1.88;;
19448;SDS011;9863;49.404;8.246;2022-09-23T10:20:00;2.75;;;1.65;;
19448;SDS011;9863;49.404;8.246;2022-09-23T10:22:38;1.60;;;1.10;;
19448;SDS011;9863;49.404;8.246;2022-09-23T10:25:14;2.08;;;1.52;;
19448;SDS011;9863;49.404;8.246;2022-09-23T10:27:46;1.90;;;1.30;;
19448;SDS011;9863;49.404;8.246;2022-09-23T10:32:54;553.90;;;523.17;;
19448;SDS011;9863;49.404;8.246;2022-09-23T10:35:23;832.95;;;777.75;;
19448;SDS011;9863;49.404;8.246;2022-09-23T10:43:26;895.78;;;842.00;;
19448;SDS011;9863;49.404;8.246;2022-09-23T10:47:01;905.88;;;849.42;;
19448;SDS011;9863;49.404;8.246;2022-09-23T11:01:40;993.78;;;928.47;;
19448;SDS011;9863;49.404;8.246;2022-09-23T11:13:17;1014.80;;;951.08;;
19448;SDS011;9863;49.404;8.246;2022-09-23T11:34:17;206.98;;;193.57;;
19448;SDS011;9863;49.404;8.246;2022-09-23T11:37:23;887.85;;;838.80;;
19448;SDS011;9863;49.404;8.246;2022-09-23T11:46:01;876.88;;;828.45;;
19448;SDS011;9863;49.404;8.246;2022-09-23T11:48:52;1043.95;;;980.10;;
19448;SDS011;9863;49.404;8.246;2022-09-23T11:51:30;971.25;;;916.55;;
19448;SDS011;9863;49.404;8.246;2022-09-23T11:54:11;1038.63;;;973.35;;
19448;SDS011;9863;49.404;8.246;2022-09-23T11:56:50;1042.15;;;976.78;;
19448;SDS011;9863;49.404;8.246;2022-09-23T12:02:43;252.45;;;237.63;;
19448;SDS011;9863;49.404;8.246;2022-09-23T12:05:53;736.38;;;692.38;;
19448;SDS011;9863;49.404;8.246;2022-09-23T12:08:30;0.32;;;0.30;;
19448;SDS011;9863;49.404;8.246;2022-09-23T12:25:55;0.00;;;0.00;;
19448;SDS011;9863;49.404;8.246;2022-09-23T12:28:29;0.00;;;0.00;;
19448;SDS011;9863;49.404;8.246;2022-09-23T12:31:12;0.47;;;0.47;;
19448;SDS011;9863;49.404;8.246;2022-09-23T12:33:51;0.00;;;0.00;;
19448;SDS011;9863;49.404;8.246;2022-09-23T12:36:24;0.00;;;0.00;;
19448;SDS011;9863;49.404;8.246;2022-09-23T12:39:04;352.48;;;330.65;;
19448;SDS011;9863;49.404;8.246;2022-09-23T12:41:42;0.00;;;0.00;;
19448;SDS011;9863;49.404;8.246;2022-09-23T12:47:36;0.00;;;0.00;;
19448;SDS011;9863;49.404;8.246;2022-09-23T12:49:55;0.00;;;0.00;;
19448;SDS011;9863;49.404;8.246;2022-09-23T12:52:25;0.00;;;0.00;;
19448;SDS011;9863;49.404;8.246;2022-09-23T12:57:48;0.00;;;0.00;;
19448;SDS011;9863;49.404;8.246;2022-09-23T13:05:39;0.00;;;0.00;;
19448;SDS011;9863;49.404;8.246;2022-09-23T13:08:38;0.10;;;0.10;;
19448;SDS011;9863;49.404;8.246;2022-09-23T13:13:50;0.00;;;0.00;;
19448;SDS011;9863;49.404;8.246;2022-09-23T13:16:25;0.90;;;0.70;;
19448;SDS011;9863;49.404;8.246;2022-09-23T13:26:55;1.10;;;0.73;;
19448;SDS011;9863;49.404;8.246;2022-09-23T13:29:46;3.45;;;1.70;;
19448;SDS011;9863;49.404;8.246;2022-09-23T13:32:29;4.22;;;1.92;;
19448;SDS011;9863;49.404;8.246;2022-09-23T13:35:03;6.13;;;2.83;;
19448;SDS011;9863;49.404;8.246;2022-09-23T13:37:51;3.85;;;2.00;;
19448;SDS011;9863;49.404;8.246;2022-09-23T13:40:23;5.05;;;2.25;;
19448;SDS011;9863;49.404;8.246;2022-09-23T13:43:04;5.05;;;2.30;;
19448;SDS011;9863;49.404;8.246;2022-09-23T13:45:38;6.07;;;2.22;;
19448;SDS011;9863;49.404;8.246;2022-09-23T13:48:13;9.23;;;3.13;;
19448;SDS011;9863;49.404;8.246;2022-09-23T13:50:48;11.65;;;3.25;;
19448;SDS011;9863;49.404;8.246;2022-09-23T13:53:22;16.38;;;4.22;;
19448;SDS011;9863;49.404;8.246;2022-09-23T13:56:02;17.85;;;4.15;;
19448;SDS011;9863;49.404;8.246;2022-09-23T13:58:32;15.20;;;3.55;;
19448;SDS011;9863;49.404;8.246;2022-09-23T14:01:02;17.65;;;4.18;;
19448;SDS011;9863;49.404;8.246;2022-09-23T14:03:35;20.25;;;5.03;;
19448;SDS011;9863;49.404;8.246;2022-09-23T14:06:07;24.48;;;5.35;;
19448;SDS011;9863;49.404;8.246;2022-09-23T14:08:43;23.27;;;4.80;;
19448;SDS011;9863;49.404;8.246;2022-09-23T14:11:17;20.17;;;4.43;;
19448;SDS011;9863;49.404;8.246;2022-09-23T14:13:58;21.67;;;4.72;;
19448;SDS011;9863;49.404;8.246;2022-09-23T14:16:37;14.40;;;3.38;;
19448;SDS011;9863;49.404;8.246;2022-09-23T14:19:09;29.13;;;6.15;;
19448;SDS011;9863;49.404;8.246;2022-09-23T14:21:46;20.02;;;4.18;;
19448;SDS011;9863;49.404;8.246;2022-09-23T14:24:28;18.10;;;3.95;;
19448;SDS011;9863;49.404;8.246;2022-09-23T14:27:08;17.70;;;3.90;;
19448;SDS011;9863;49.404;8.246;2022-09-23T14:29:45;15.88;;;3.45;;
19448;SDS011;9863;49.404;8.246;2022-09-23T14:32:16;15.10;;;3.58;;
19448;SDS011;9863;49.404;8.246;2022-09-23T14:34:51;14.38;;;3.67;;
19448;SDS011;9863;49.404;8.246;2022-09-23T14:37:38;17.25;;;4.13;;
19448;SDS011;9863;49.404;8.246;2022-09-23T14:45:54;11.07;;;2.83;;
19448;SDS011;9863;49.404;8.246;2022-09-23T14:48:24;11.45;;;2.92;;
19448;SDS011;9863;49.404;8.246;2022-09-23T14:50:57;11.68;;;3.00;;
19448;SDS011;9863;49.404;8.246;2022-09-23T14:56:13;10.68;;;2.90;;
19448;SDS011;9863;49.404;8.246;2022-09-23T14:58:50;8.23;;;2.40;;
19448;SDS011;9863;49.404;8.246;2022-09-23T15:01:32;8.10;;;2.60;;
19448;SDS011;9863;49.404;8.246;2022-09-23T15:09:37;14.77;;;3.97;;
19448;SDS011;9863;49.404;8.246;2022-09-23T15:12:10;13.32;;;4.10;;
19448;SDS011;9863;49.404;8.246;2022-09-23T15:14:43;14.40;;;4.00;;
19448;SDS011;9863;49.404;8.246;2022-09-23T15:17:26;12.35;;;3.70;;
19448;SDS011;9863;49.404;8.246;2022-09-23T15:20:01;16.67;;;4.45;;
19448;SDS011;9863;49.404;8.246;2022-09-23T15:22:45;25.58;;;5.03;;
19448;SDS011;9863;49.404;8.246;2022-09-23T15:25:17;0.00;;;0.00;;
19448;SDS011;9863;49.404;8.246;2022-09-23T15:28:12;8.05;;;2.13;;
19448;SDS011;9863;49.404;8.246;2022-09-23T15:30:44;19.98;;;4.10;;
19448;SDS011;9863;49.404;8.246;2022-09-23T15:33:12;183.05;;;171.48;;
19448;SDS011;9863;49.404;8.246;2022-09-23T15:35:45;23.92;;;5.25;;
19448;SDS011;9863;49.404;8.246;2022-09-23T15:38:14;56.42;;;51.22;;
19448;SDS011;9863;49.404;8.246;2022-09-23T15:40:43;30.35;;;6.55;;
19448;SDS011;9863;49.404;8.246;2022-09-23T15:43:16;44.92;;;9.38;;
19448;SDS011;9863;49.404;8.246;2022-09-23T15:46:03;374.05;;;350.73;;
19448;SDS011;9863;49.404;8.246;2022-09-23T15:48:40;0.80;;;0.80;;
19448;SDS011;9863;49.404;8.246;2022-09-23T15:51:31;4.68;;;2.53;;
19448;SDS011;9863;49.404;8.246;2022-09-23T15:53:59;0.00;;;0.00;;
19448;SDS011;9863;49.404;8.246;2022-09-23T15:56:27;0.20;;;0.20;;
19448;SDS011;9863;49.404;8.246;2022-09-23T15:58:55;0.50;;;0.50;;
19448;SDS011;9863;49.404;8.246;2022-09-23T16:03:58;3.55;;;2.22;;
19448;SDS011;9863;49.404;8.246;2022-09-23T16:06:30;2.55;;;1.55;;
19448;SDS011;9863;49.404;8.246;2022-09-23T16:08:58;3.28;;;2.00;;
19448;SDS011;9863;49.404;8.246;2022-09-23T16:11:27;3.47;;;2.00;;
19448;SDS011;9863;49.404;8.246;2022-09-23T16:14:00;0.25;;;0.25;;
19448;SDS011;9863;49.404;8.246;2022-09-23T16:16:28;0.80;;;0.80;;
19448;SDS011;9863;49.404;8.246;2022-09-23T16:18:57;4.35;;;2.42;;
19448;SDS011;9863;49.404;8.246;2022-09-23T16:21:25;1.42;;;1.13;;
19448;SDS011;9863;49.404;8.246;2022-09-23T16:23:54;1.67;;;1.55;;
19448;SDS011;9863;49.404;8.246;2022-09-23T16:26:29;0.70;;;0.70;;
19448;SDS011;9863;49.404;8.246;2022-09-23T16:29:05;1.30;;;1.10;;
19448;SDS011;9863;49.404;8.246;2022-09-23T16:31:35;2.00;;;1.52;;
19448;SDS011;9863;49.404;8.246;2022-09-23T16:34:05;2.22;;;1.55;;
19448;SDS011;9863;49.404;8.246;2022-09-23T16:36:34;2.00;;;1.52;;
19448;SDS011;9863;49.404;8.246;2022-09-23T16:39:08;1.27;;;1.10;;
19448;SDS011;9863;49.404;8.246;2022-09-23T16:41:39;0.95;;;0.77;;
19448;SDS011;9863;49.404;8.246;2022-09-23T16:44:09;1.30;;;1.00;;
19448;SDS011;9863;49.404;8.246;2022-09-23T16:46:38;0.80;;;0.60;;
19448;SDS011;9863;49.404;8.246;2022-09-23T16:49:09;0.80;;;0.80;;
19448;SDS011;9863;49.404;8.246;2022-09-23T16:51:53;1.42;;;1.02;;
19448;SDS011;9863;49.404;8.246;2022-09-23T16:54:26;1.25;;;1.05;;
19448;SDS011;9863;49.404;8.246;2022-09-23T16:56:54;1.50;;;1.02;;
19448;SDS011;9863;49.404;8.246;2022-09-23T16:59:22;1.77;;;1.27;;
19448;SDS011;9863;49.404;8.246;2022-09-23T17:02:10;2.05;;;1.35;;
19448;SDS011;9863;49.404;8.246;2022-09-23T17:04:56;1.48;;;1.10;;
19448;SDS011;9863;49.404;8.246;2022-09-23T17:07:25;1.63;;;1.30;;
19448;SDS011;9863;49.404;8.246;2022-09-23T17:09:53;1.73;;;1.30;;
19448;SDS011;9863;49.404;8.246;2022-09-23T17:12:23;0.90;;;0.70;;
19448;SDS011;9863;49.404;8.246;2022-09-23T17:14:55;1.60;;;1.13;;
19448;SDS011;9863;49.404;8.246;2022-09-23T17:17:23;2.80;;;1.92;;
19448;SDS011;9863;49.404;8.246;2022-09-23T17:19:51;1.55;;;1.15;;
19448;SDS011;9863;49.404;8.246;2022-09-23T17:22:19;1.00;;;0.88;;
19448;SDS011;9863;49.404;8.246;2022-09-23T17:24:48;0.47;;;0.47;;
19448;SDS011;9863;49.404;8.246;2022-09-23T17:27:17;1.10;;;0.93;;
19448;SDS011;9863;49.404;8.246;2022-09-23T17:29:45;1.20;;;0.90;;
19448;SDS011;9863;49.404;8.246;2022-09-23T17:32:12;1.67;;;1.27;;
19448;SDS011;9863;49.404;8.246;2022-09-23T17:34:40;5.22;;;2.40;;
19448;SDS011;9863;49.404;8.246;2022-09-23T17:37:10;1.52;;;1.20;;
19448;SDS011;9863;49.404;8.246;2022-09-23T17:39:37;4.28;;;2.35;;
19448;SDS011;9863;49.404;8.246;2022-09-23T17:42:06;2.22;;;1.48;;
19448;SDS011;9863;49.404;8.246;2022-09-23T17:44:34;2.28;;;1.58;;
19448;SDS011;9863;49.404;8.246;2022-09-23T17:47:02;3.90;;;2.28;;
19448;SDS011;9863;49.404;8.246;2022-09-23T17:49:32;3.70;;;2.17;;
19448;SDS011;9863;49.404;8.246;2022-09-23T17:52:01;3.63;;;2.00;;
19448;SDS011;9863;49.404;8.246;2022-09-23T17:54:31;3.33;;;1.95;;
19448;SDS011;9863;49.404;8.246;2022-09-23T17:56:59;2.60;;;1.73;;
19448;SDS011;9863;49.404;8.246;2022-09-23T17:59:28;2.60;;;1.73;;
19448;SDS011;9863;49.404;8.246;2022-09-23T18:01:56;4.35;;;2.58;;
19448;SDS011;9863;49.404;8.246;2022-09-23T18:04:24;3.05;;;2.15;;
19448;SDS011;9863;49.404;8.246;2022-09-23T18:06:52;1.52;;;1.35;;
19448;SDS011;9863;49.404;8.246;2022-09-23T18:09:21;0.98;;;0.90;;
19448;SDS011;9863;49.404;8.246;2022-09-23T18:11:50;1.67;;;1.33;;
19448;SDS011;9863;49.404;8.246;2022-09-23T18:14:19;1.75;;;1.23;;
19448;SDS011;9863;49.404;8.246;2022-09-23T18:16:52;2.85;;;1.92;;
19448;SDS011;9863;49.404;8.246;2022-09-23T18:19:21;1.45;;;1.10;;
19448;SDS011;9863;49.404;8.246;2022-09-23T18:21:54;3.85;;;2.10;;
19448;SDS011;9863;49.404;8.246;2022-09-23T18:24:23;3.13;;;2.05;;
19448;SDS011;9863;49.404;8.246;2022-09-23T18:26:59;2.72;;;2.00;;
19448;SDS011;9863;49.404;8.246;2022-09-23T18:29:27;3.10;;;1.90;;
19448;SDS011;9863;49.404;8.246;2022-09-23T18:31:55;3.80;;;2.30;;
19448;SDS011;9863;49.404;8.246;2022-09-23T18:34:25;3.25;;;2.10;;
19448;SDS011;9863;49.404;8.246;2022-09-23T18:36:53;4.80;;;2.40;;
19448;SDS011;9863;49.404;8.246;2022-09-23T18:39:22;7.57;;;3.45;;
19448;SDS011;9863;49.404;8.246;2022-09-23T18:41:50;3.63;;;2.20;;
19448;SDS011;9863;49.404;8.246;2022-09-23T18:44:18;5.65;;;2.80;;
19448;SDS011;9863;49.404;8.246;2022-09-23T18:46:46;13.95;;;4.10;;
19448;SDS011;9863;49.404;8.246;2022-09-23T18:49:14;4.70;;;2.60;;
19448;SDS011;9863;49.404;8.246;2022-09-23T18:52:00;5.43;;;2.65;;
19448;SDS011;9863;49.404;8.246;2022-09-23T18:54:28;29.42;;;6.22;;
19448;SDS011;9863;49.404;8.246;2022-09-23T18:56:57;11.57;;;3.55;;
19448;SDS011;9863;49.404;8.246;2022-09-23T18:59:25;18.33;;;4.18;;
19448;SDS011;9863;49.404;8.246;2022-09-23T19:01:59;35.67;;;7.57;;
19448;SDS011;9863;49.404;8.246;2022-09-23T19:04:27;9.07;;;3.28;;
19448;SDS011;9863;49.404;8.246;2022-09-23T19:06:55;22.75;;;4.78;;